Aeroporto :
LOGIN :

Iscrizione | Disclaimer

   EN    FR    IT 

 










Sommario :    VFR   VFR Marginale   IFR   IFR Intensivo   IFR Molto Intensivo
Visibilità : 
Base nubi : 
>= 8 km
>= 3000ft
5 / 8 km
1000 / 3000 ft
1500m / 5 km
500 / 1000 ft
800 / 1500m
200 / 500 ft
< 800m
< 200 ft
Simboli :   Temporali  Nebbia  Neve Forte  Precipitazioni Forti  Vento > 20 kt
SIGMETs :   Varie  Temporali  Ghiacco  Turbolenza  Onda orograficha  Ceneri Vulcaniche







- Altitudine del aeroporto : 160 ft
- Codice IATA : FMO


EDDG - Münster Osnabrück Int.

ULTIMO METAR :
  • 220850Z 04008KT 360V070 CAVOK M00/M03 Q1026 NOSIG

METARs OBSOLETI :
  • 220820Z 04008KT CAVOK M01/M04 Q1026 NOSIG
  • 220750Z 04007KT 010V080 CAVOK M02/M04 Q1026 NOSIG
  • 220720Z 04005KT 010V070 CAVOK M03/M05 Q1026 NOSIG
  • 220650Z 03005KT CAVOK M04/M06 Q1026 NOSIG
  • 220620Z VRB02KT CAVOK M04/M06 Q1025 NOSIG

TAF TAF EDDG
Valido dal 22 a 06 ore il 23 a 06 ore UTC


220500Z 2206/2306 05005KT CAVOK
BECMG 2208/2211 06010KT
BECMG 2217/2220 05005KT
Nessun NOTAM noto per questo aeroporto.



MetMap, La meteo Aeronautica in un colpo d'occhio ! - Copyright ORBIFLY Dicembre 2007 - Disclaimer

ORBIFLY MET'MAP TEAM :

Programmazione e sviluppo : Alexandra Zaïnal
Concezione e sviluppo : Baudouin d'Aumeries
Co-Programmazione e sviluppo : Marc-Olivier Méhu
Supporto tecnico e logistico : Manuel Goepfert
Aiuto per la traduzione : Arnaldo La Scala

Contatto : metmap@orbifly.com




FONTI E CREDITI :

   NOAA